M. Luther — WDC7372 — position and weather

sailwx.info

Track history (hours):
 
Tides and Currents Weather Stations Pressure Air Temp Water Temp Dewpoint Dewpoint Depression Visibility Wind Speed Wind Dir Waves Ship Positions

M. Luther

Owner: Salmon Bay Barge Line, Inc., Seattle, WA. More information available from US FCC via Universal Licensing System and Coast Guard Vessel Documentation Center.

Last reported at 2017-Jun-01 18:57 UTC. Time now 2017-Jun-23 03:31 UTC.
Position N 45°34' W 122°43'.
Warning: this ship's position is 21 days out of date.

Length 28 m; draft 4.1 m.

Type: Tug. MMSI: 367070410.

Date/timePositionNaut miles runAvg speedWind from/ knotsBaromVisibWave heightAir tempDewpointWater temp
2017-Jun-01 18:57N 45°34' W 122°43'0 0.0
2017-Jun-01 18:24N 45°34' W 122°43'0 0.1
2017-Jun-01 18:01N 45°34' W 122°43'4 7.0
2017-Jun-01 17:30N 45°36' W 122°47'3 6.6
2017-Jun-01 17:00N 45°39' W 122°44'0 0.9
2017-Jun-01 16:30N 45°39' W 122°45'2 4.0
2017-Jun-01 16:01N 45°41' W 122°46'2 3.9
2017-Jun-01 15:31N 45°43' W 122°46'2 4.0
2017-Jun-01 15:01N 45°45' W 122°46'4 3.9
2017-Jun-01 14:01N 45°48' W 122°47'2 3.7
2017-Jun-01 13:31N 45°50' W 122°47'2 3.7
2017-Jun-01 13:01N 45°52' W 122°47'2 3.6
2017-Jun-01 12:30N 45°54' W 122°48'2 3.7
2017-Jun-01 12:01N 45°55' W 122°48'2 3.8
2017-Jun-01 11:31N 45°57' W 122°49'2 3.7
2017-Jun-01 11:01N 45°59' W 122°50'2 4.1
2017-Jun-01 10:30N 46°01' W 122°51'2 3.6
2017-Jun-01 10:00N 46°02' W 122°53'2 3.6
2017-Jun-01 09:31N 46°04' W 122°53'2 3.6
2017-Jun-01 09:00N 46°05' W 122°55'2 3.4
2017-Jun-01 08:31N 46°06' W 122°57'2 3.8
2017-Jun-01 08:01N 46°07' W 122°59'2 3.6
2017-Jun-01 07:30N 46°08' W 123°01'2 3.7
2017-Jun-01 07:01N 46°09' W 123°04'2 3.9
2017-Jun-01 06:31N 46°10' W 123°06'2 4.2
2017-Jun-01 06:01N 46°11' W 123°09'2 3.9
2017-Jun-01 05:30N 46°11' W 123°11'2 4.1
2017-Jun-01 05:01N 46°10' W 123°14'2 3.9
2017-Jun-01 04:31N 46°09' W 123°16'2 4.6
2017-Jun-01 04:01N 46°09' W 123°20'2 4.7
2017-Jun-01 03:31N 46°09' W 123°23'2 4.9
2017-Jun-01 03:01N 46°11' W 123°26'3 5.1
2017-Jun-01 02:31N 46°13' W 123°25'3 5.4
2017-Jun-01 02:01N 46°16' W 123°27'3 5.2
2017-Jun-01 01:31N 46°16' W 123°31'3 6.0
2017-Jun-01 01:01N 46°15' W 123°35'3 6.1
2017-Jun-01 00:31N 46°15' W 123°40'3 6.5
2017-Jun-01 00:01N 46°14' W 123°44'3 7.0
2017-May-31 23:31N 46°12' W 123°48'3 6.9
2017-May-31 23:01N 46°11' W 123°53'3 6.5
2017-May-31 22:31N 46°13' W 123°57'2 4.5
2017-May-31 22:01N 46°14' W 123°60'3 5.3
2017-May-31 21:31N 46°16' W 124°03'2 4.5
2017-May-31 21:00N 46°15' W 124°06'2 4.6
2017-May-31 20:31N 46°13' W 124°09'2 4.8
2017-May-31 20:01N 46°13' W 124°12'2 4.5
2017-May-31 19:31N 46°13' W 124°15'2 4.5
2017-May-31 19:01N 46°15' W 124°18'2 3.9
2017-May-31 18:31N 46°16' W 124°19'2 4.4
2017-May-31 18:00N 46°19' W 124°19'3 5.3
2017-May-31 17:30N 46°21' W 124°20'2 5.1
2017-May-31 17:01N 46°24' W 124°21'3 5.4
2017-May-31 16:31N 46°26' W 124°21'3 5.2
2017-May-31 16:01N 46°29' W 124°22'3 5.1
2017-May-31 15:31N 46°31' W 124°23'3 5.2
2017-May-31 15:00N 46°34' W 124°24'5 5.5
2017-May-31 14:01N 46°39' W 124°25'3 5.2
2017-May-31 13:30N 46°42' W 124°26'3 5.0
2017-May-31 13:01N 46°44' W 124°27'3 5.0
2017-May-31 12:30N 46°47' W 124°27'3 5.1
2017-May-31 12:00N 46°49' W 124°28'3 5.2
2017-May-31 11:31N 46°52' W 124°29'3 5.3
2017-May-31 11:00N 46°54' W 124°30'3 6.4
2017-May-31 10:30N 46°57' W 124°31'3 6.6
2017-May-31 10:00N 47°01' W 124°32'3 6.4
2017-May-31 09:30N 47°04' W 124°33'510.4
2017-May-31 09:00N 47°09' W 124°35'2 3.0
2017-May-31 08:30N 47°10' W 124°35'66 6.9
2017-May-30 22:51N 48°15' W 124°58'2 6.3
2017-May-30 22:30N 48°17' W 124°56'3 6.0
2017-May-30 21:56N 48°20' W 124°53'3 6.6
2017-May-30 21:29N 48°22' W 124°51'4 7.5
2017-May-30 21:00N 48°25' W 124°48'4 7.6
2017-May-30 20:30N 48°26' W 124°42'4 8.6
2017-May-30 20:00N 48°24' W 124°36'4 8.8
2017-May-30 19:30N 48°22' W 124°30'4 8.4
2017-May-30 19:00N 48°20' W 124°24'4 8.2
2017-May-30 18:30N 48°19' W 124°18'4 8.6
2017-May-30 18:00N 48°17' W 124°13'4 8.3
2017-May-30 17:29N 48°15' W 124°07'4 8.2
2017-May-30 16:58N 48°13' W 124°01'4 7.5
2017-May-30 16:28N 48°12' W 123°56'3 6.9
2017-May-30 15:59N 48°11' W 123°51'4 6.8
2017-May-30 15:23N 48°12' W 123°45'3 7.2
2017-May-30 15:01N 48°12' W 123°41'4 7.0
2017-May-30 14:27N 48°12' W 123°35'6 6.5
2017-May-30 13:29N 48°15' W 123°27'4 5.6
2017-May-30 12:48N 48°17' W 123°22'2 6.1
2017-May-30 12:27N 48°19' W 123°20'3 7.2
2017-May-30 11:59N 48°21' W 123°16'3 6.7
2017-May-30 11:29N 48°23' W 123°12'3 7.0
2017-May-30 11:01N 48°27' W 123°12'3 6.3
2017-May-30 10:30N 48°30' W 123°12'4 7.6
2017-May-30 10:00N 48°33' W 123°13'4 7.7
2017-May-30 09:30N 48°37' W 123°14'4 7.3
2017-May-30 08:56N 48°41' W 123°16'3 6.7
2017-May-30 08:29N 48°43' W 123°12'4 8.3
2017-May-30 07:57N 48°45' W 123°06'6 4.9
2017-May-30 06:38N 48°51' W 123°05'1 6.3
2017-May-30 06:29N 48°52' W 123°06'4 6.4
2017-May-30 05:56N 48°54' W 123°10'3 6.5
2017-May-30 05:26N 48°56' W 123°14'5 6.2
2017-May-30 04:38N 48°60' W 123°19'1 6.4
2017-May-30 04:30N 49°00' W 123°20'3 5.9
2017-May-30 04:00N 49°03' W 123°21'3 5.3
2017-May-30 03:31N 49°06' W 123°19'3 5.9
2017-May-30 03:01N 49°07' W 123°15'3 6.0
2017-May-30 02:31N 49°07' W 123°11'4 7.5
2017-May-30 02:01N 49°07' W 123°05'4 7.6
2017-May-30 01:31N 49°09' W 123°00'0 0.2
2017-May-30 01:01N 49°09' W 123°00'0 0.0
2017-May-30 00:30N 49°09' W 123°00'0 0.0
2017-May-30 00:00N 49°09' W 123°00'0 0.0
2017-May-29 23:30N 49°09' W 123°00'0 0.0
2017-May-29 23:00N 49°09' W 123°00'0 0.0
2017-May-29 22:30N 49°09' W 123°00'0 0.0
2017-May-29 22:00N 49°09' W 123°00'0 0.0
2017-May-29 21:30N 49°09' W 123°00'0 0.0
2017-May-29 21:00N 49°09' W 123°00'0 0.0
2017-May-29 20:30N 49°09' W 123°00'0 0.0
2017-May-29 20:00N 49°09' W 123°00'0 0.0
2017-May-29 19:30N 49°09' W 123°00'0 0.0
2017-May-29 19:00N 49°09' W 123°00'0 0.0
2017-May-29 18:30N 49°09' W 123°00'0 0.1
2017-May-29 18:00N 49°09' W 123°00'0 0.1
2017-May-29 17:30N 49°09' W 123°00'0 0.0
2017-May-29 17:00N 49°09' W 123°00'0 0.0
2017-May-29 16:30N 49°09' W 123°00'0 0.0
2017-May-29 16:00N 49°09' W 123°00'0 0.0
2017-May-29 15:30N 49°09' W 123°00'0 0.0
2017-May-29 15:00N 49°09' W 123°00'0 0.0
2017-May-29 14:30N 49°09' W 123°00'0 0.0
2017-May-29 13:30N 49°09' W 123°00'0 0.0
2017-May-29 13:00N 49°09' W 123°00'0 0.0
2017-May-29 12:30N 49°09' W 123°00'0 0.0
2017-May-29 12:00N 49°09' W 123°00'0 0.0
2017-May-29 11:30N 49°09' W 123°00'0 0.0
2017-May-29 11:00N 49°09' W 123°00'0 0.0
2017-May-29 10:30N 49°09' W 123°00'0 0.0
2017-May-29 10:00N 49°09' W 123°00'0 0.0
2017-May-29 09:30N 49°09' W 123°00'0 0.0
2017-May-29 09:00N 49°09' W 123°00'0 0.0
2017-May-29 08:30N 49°09' W 123°00'0 0.0
2017-May-29 08:00N 49°09' W 123°00'0 0.0
2017-May-29 07:30N 49°09' W 123°00'0 0.0
2017-May-29 07:00N 49°09' W 123°00'0 0.0
2017-May-29 06:30N 49°09' W 123°00'0 0.0
2017-May-29 06:00N 49°09' W 123°00'0 0.0
2017-May-29 05:30N 49°09' W 123°00'0 0.0
2017-May-29 05:00N 49°09' W 123°00'0 0.0
2017-May-29 04:30N 49°09' W 123°00'0 0.0
2017-May-29 04:00N 49°09' W 123°00'0 0.0
2017-May-29 03:30N 49°09' W 123°00'0 0.0
2017-May-29 03:00N 49°09' W 123°00'0 0.0
2017-May-29 02:30N 49°09' W 123°00'0 0.0
2017-May-29 02:00N 49°09' W 123°00'0 0.0
2017-May-29 01:30N 49°09' W 123°00'0 0.0
2017-May-29 01:00N 49°09' W 123°00'0 0.0
2017-May-29 00:29N 49°09' W 123°00'0 0.0
2017-May-28 23:59N 49°09' W 123°00'0 0.0
2017-May-28 23:29N 49°09' W 123°00'0 0.0
2017-May-28 22:59N 49°09' W 123°00'0 0.0
2017-May-28 22:29N 49°09' W 123°00'0 0.0
2017-May-28 21:59N 49°09' W 123°00'0 0.0
2017-May-28 21:29N 49°09' W 123°00'0 0.0
2017-May-28 20:59N 49°09' W 123°00'0 0.0
2017-May-28 20:29N 49°09' W 123°00'0 0.0
2017-May-28 19:59N 49°09' W 123°00'0 0.0
2017-May-28 19:29N 49°09' W 123°00'0 0.0
2017-May-28 18:59N 49°09' W 123°00'0 0.0
2017-May-28 18:29N 49°09' W 123°00'0 0.0
2017-May-28 17:59N 49°09' W 123°00'0 0.0
2017-May-28 17:29N 49°09' W 123°00'0 0.0
2017-May-28 16:59N 49°09' W 123°00'0 0.0
2017-May-28 16:29N 49°09' W 123°00'0 0.0
2017-May-28 15:59N 49°09' W 123°00'0 0.0
2017-May-28 15:29N 49°09' W 123°00'0 0.0
2017-May-28 14:59N 49°09' W 123°00'0 0.0
2017-May-28 13:59N 49°09' W 123°00'0 0.0
2017-May-28 13:29N 49°09' W 123°00'0 0.0
2017-May-28 12:59N 49°09' W 123°00'0 0.0
2017-May-28 12:29N 49°09' W 123°00'0 0.0
2017-May-28 11:59N 49°09' W 123°00'0 0.0
2017-May-28 11:29N 49°09' W 123°00'0 0.0
2017-May-28 10:59N 49°09' W 123°00'0 0.0
2017-May-28 10:29N 49°09' W 123°00'0 0.0
2017-May-28 09:56N 49°09' W 123°00'0 0.0
2017-May-28 09:29N 49°09' W 123°00'0 0.0
2017-May-28 08:59N 49°09' W 123°00'0 0.0
2017-May-28 08:29N 49°09' W 123°00'0 0.0
2017-May-28 07:59N 49°09' W 123°00'0 0.0
2017-May-28 07:29N 49°09' W 123°00'0 0.0
2017-May-28 06:59N 49°09' W 123°00'0 0.0
2017-May-28 06:29N 49°09' W 123°00'0 0.0
2017-May-28 05:59N 49°09' W 123°00'0 0.0
2017-May-28 05:29N 49°09' W 123°00'0 0.0
2017-May-28 04:59N 49°09' W 123°00'0 0.0
2017-May-28 04:29N 49°09' W 123°00'0 0.0
2017-May-28 03:53N 49°09' W 123°00'0 0.0
2017-May-28 03:29N 49°09' W 123°00'0 0.0
2017-May-28 02:59N 49°09' W 123°00'0 0.0
2017-May-28 02:29N 49°09' W 123°00'0 0.0
2017-May-28 01:59N 49°09' W 123°00'0 0.0
2017-May-28 01:29N 49°09' W 123°00'0 0.0
2017-May-28 00:59N 49°09' W 123°00'0 0.0
2017-May-28 00:29N 49°09' W 123°00'0 0.0
2017-May-27 23:59N 49°09' W 123°00'0 0.0
2017-May-27 23:29N 49°09' W 123°00'0 0.0
2017-May-27 22:59N 49°09' W 123°00'0 0.0
2017-May-27 22:29N 49°09' W 123°00'0 0.0
2017-May-27 21:59N 49°09' W 123°00'0 0.0
2017-May-27 21:29N 49°09' W 123°00'0 0.0
2017-May-27 20:59N 49°09' W 123°00'0 0.0
2017-May-27 20:29N 49°09' W 123°00'0 0.0
2017-May-27 19:59N 49°09' W 123°00'0 0.0
2017-May-27 19:29N 49°09' W 123°00'0 0.0
2017-May-27 18:56N 49°09' W 123°00'0 0.0
2017-May-27 18:29N 49°09' W 123°00'0 0.0
2017-May-27 17:59N 49°09' W 123°00'0 0.0
2017-May-27 17:29N 49°09' W 123°00'0 0.0
2017-May-27 16:59N 49°09' W 123°00'0 0.0
2017-May-27 16:29N 49°09' W 123°00'0 0.0
2017-May-27 15:59N 49°09' W 123°00'0 0.0
2017-May-27 15:29N 49°09' W 123°00'0 0.0
2017-May-27 14:59N 49°09' W 123°00'0 0.0
2017-May-27 14:29N 49°09' W 123°00'0 0.0
2017-May-27 13:28N 49°09' W 123°00'0 0.0
2017-May-27 12:58N 49°09' W 123°00'0 0.0
2017-May-27 12:28N 49°09' W 123°00'0 0.0
2017-May-27 11:58N 49°09' W 123°00'0 0.0
2017-May-27 11:28N 49°09' W 123°00'0 0.0
2017-May-27 10:58N 49°09' W 123°00'0 0.0
2017-May-27 10:25N 49°09' W 123°00'0 0.0
2017-May-27 09:58N 49°09' W 123°00'0 0.0
2017-May-27 09:28N 49°09' W 123°00'0 0.0
2017-May-27 08:58N 49°09' W 123°00'0 0.0
2017-May-27 08:28N 49°09' W 123°00'0 0.0
2017-May-27 07:58N 49°09' W 123°00'0 0.0
2017-May-27 07:28N 49°09' W 123°00'0 0.0
2017-May-27 06:58N 49°09' W 123°00'0 0.0
2017-May-27 06:28N 49°09' W 123°00'0 0.0
2017-May-27 05:58N 49°09' W 123°00'0 0.0
2017-May-27 05:28N 49°09' W 123°00'0 0.0
2017-May-27 04:58N 49°09' W 123°00'0 0.0
2017-May-27 04:28N 49°09' W 123°00'0 0.0
2017-May-27 03:58N 49°09' W 123°00'0 0.0
2017-May-27 03:28N 49°09' W 123°00'0 0.0
2017-May-27 02:58N 49°09' W 123°00'0 0.0
2017-May-27 02:28N 49°09' W 123°00'0 0.0
2017-May-27 01:58N 49°09' W 123°00'0 0.1
2017-May-27 01:28N 49°09' W 123°00'0 0.1
2017-May-27 00:58N 49°09' W 123°00'0 0.0
2017-May-27 00:28N 49°09' W 123°00'0 0.0
2017-May-26 23:58N 49°09' W 123°00'0 0.0
2017-May-26 23:28N 49°09' W 123°00'0 0.0
2017-May-26 22:58N 49°09' W 123°00'0 0.0
2017-May-26 22:28N 49°09' W 123°00'0 0.0
2017-May-26 21:58N 49°09' W 123°00'0 0.0
2017-May-26 21:22N 49°09' W 123°00'0 0.0
2017-May-26 20:58N 49°09' W 123°00'0 0.0
2017-May-26 20:28N 49°09' W 123°00'0 0.0
2017-May-26 19:58N 49°09' W 123°00'0 0.0
2017-May-26 19:28N 49°09' W 123°00'0 0.0
2017-May-26 18:58N 49°09' W 123°00'0 0.0
2017-May-26 18:28N 49°09' W 123°00'0 0.0
2017-May-26 18:00N 49°09' W 123°00'0 0.0
2017-May-26 17:28N 49°09' W 123°00'0 0.0
2017-May-26 16:58N 49°09' W 123°00'0 0.0
2017-May-26 16:28N 49°09' W 123°00'0 0.0
2017-May-26 15:58N 49°09' W 123°00'0 0.0
2017-May-26 15:28N 49°09' W 123°00'0 0.0
2017-May-26 15:01N 49°09' W 123°00'0 0.0
2017-May-26 14:00N 49°09' W 123°00'0 0.0
2017-May-26 13:30N 49°09' W 123°00'0 0.0
2017-May-26 12:57N 49°09' W 123°00'0 0.0
2017-May-26 12:30N 49°09' W 123°00'0 0.0
2017-May-26 12:00N 49°09' W 123°00'0 0.0
2017-May-26 11:30N 49°09' W 123°00'0 0.0
2017-May-26 11:00N 49°09' W 123°00'0 0.0
2017-May-26 10:30N 49°09' W 123°00'0 0.0
2017-May-26 10:00N 49°09' W 123°00'0 0.0
2017-May-26 09:30N 49°09' W 123°00'0 0.0
2017-May-26 09:00N 49°09' W 123°00'0 0.0
2017-May-26 08:30N 49°09' W 123°00'0 0.0
2017-May-26 08:00N 49°09' W 123°00'0 0.0
2017-May-26 07:30N 49°09' W 123°00'0 0.0
2017-May-26 07:00N 49°09' W 123°00'0 0.0
2017-May-26 06:30N 49°09' W 123°00'0 0.0
2017-May-26 06:00N 49°09' W 123°00'0 0.0
2017-May-26 05:30N 49°09' W 123°00'0 0.0
2017-May-26 05:00N 49°09' W 123°00'0 0.0
2017-May-26 04:30N 49°09' W 123°00'0 0.0
2017-May-26 04:00N 49°09' W 123°00'0 0.0
2017-May-26 03:30N 49°09' W 123°00'0 0.0
2017-May-26 03:00N 49°09' W 123°00'0 0.0
2017-May-26 02:30N 49°09' W 123°00'0 0.0
2017-May-26 02:00N 49°09' W 123°00'0 0.0
2017-May-26 01:30N 49°09' W 123°00'0 0.0
2017-May-26 01:00N 49°09' W 123°00'0 0.0
2017-May-26 00:30N 49°09' W 123°00'0 0.0
2017-May-26 00:00N 49°09' W 123°00'0 0.0
2017-May-25 23:30N 49°09' W 123°00'0 0.0
2017-May-25 23:00N 49°09' W 123°00'0 0.0
2017-May-25 22:30N 49°09' W 123°00'0 0.1
2017-May-25 22:00N 49°09' W 123°00'0 0.2
2017-May-25 21:30N 49°09' W 123°01'2 4.6
2017-May-25 21:00N 49°08' W 123°04'2 5.0
2017-May-25 20:30N 49°07' W 123°07'2 4.2
2017-May-25 19:59N 49°07' W 123°10'2 3.8
2017-May-25 19:28N 49°08' W 123°13'2 4.0
2017-May-25 19:00N 49°07' W 123°16'2 3.6
2017-May-25 18:30N 49°06' W 123°18'2 3.1
2017-May-25 18:00N 49°05' W 123°20'3 5.4
2017-May-25 17:25N 49°03' W 123°17'2 4.2
2017-May-25 17:00N 49°01' W 123°15'3 5.9
2017-May-25 16:30N 48°60' W 123°12'3 6.2
2017-May-25 16:00N 48°57' W 123°08'4 6.3
2017-May-25 15:24N 48°55' W 123°04'8 5.6
2017-May-25 13:59N 48°48' W 122°59'2 4.5
2017-May-25 13:29N 48°46' W 123°02'2 3.7
2017-May-25 13:00N 48°45' W 123°04'3 5.8
2017-May-25 12:31N 48°44' W 123°08'4 7.0
2017-May-25 12:00N 48°42' W 123°13'2 4.5
2017-May-25 11:31N 48°40' W 123°15'3 6.0
2017-May-25 11:01N 48°37' W 123°14'3 6.3
2017-May-25 10:30N 48°34' W 123°12'3 6.4
2017-May-25 10:00N 48°31' W 123°11'4 6.9
2017-May-25 09:30N 48°28' W 123°10'4 7.8
2017-May-25 08:58N 48°24' W 123°10'5 7.2
2017-May-25 08:20N 48°19' W 123°11'2 6.7
2017-May-25 07:59N 48°17' W 123°12'8 5.1
2017-May-25 06:26N 48°09' W 123°15'0 0.7
2017-May-25 05:50N 48°09' W 123°16'1 1.4
2017-May-25 05:28N 48°09' W 123°15'1 2.5
2017-May-25 05:00N 48°09' W 123°17'1 1.4
2017-May-25 04:30N 48°10' W 123°18'0 0.7
2017-May-25 04:00N 48°10' W 123°17'1 1.6
2017-May-25 03:31N 48°10' W 123°16'2 4.4
2017-May-25 03:00N 48°11' W 123°13'510.1
2017-May-25 02:30N 48°12' W 123°06'5 9.4
2017-May-25 02:00N 48°11' W 122°59'510.2
2017-May-25 01:29N 48°10' W 122°51'610.0
2017-May-25 00:52N 48°08' W 122°43'8 9.5
2017-May-25 00:00N 48°01' W 122°36'5 9.9
2017-May-24 23:30N 47°57' W 122°31'4 8.5
2017-May-24 23:00N 47°53' W 122°28'5 9.1
2017-May-24 22:30N 47°49' W 122°26'4 8.5
2017-May-24 22:00N 47°45' W 122°26'4 8.4
2017-May-24 21:30N 47°40' W 122°27'4 8.2
2017-May-24 21:00N 47°37' W 122°24'3 5.7
2017-May-24 20:31N 47°34' W 122°22'0 0.0
2017-May-24 20:00N 47°34' W 122°22'0 0.1
2017-May-24 19:31N 47°35' W 122°22'1 2.5
2017-May-24 18:58N 47°33' W 122°21'0 0.0
2017-May-24 18:30N 47°33' W 122°21'0 0.0
2017-May-24 17:59N 47°33' W 122°21'0 0.0
2017-May-24 17:29N 47°33' W 122°21'0 0.0
2017-May-24 16:59N 47°33' W 122°21'0 0.0
2017-May-24 16:26N 47°33' W 122°21'0 0.0
2017-May-24 15:59N 47°33' W 122°21'0 0.0
2017-May-24 15:28N 47°33' W 122°21'0 0.0
2017-May-24 14:57N 47°33' W 122°21'0 0.0
2017-May-24 14:29N 47°33' W 122°21'0 0.0
2017-May-24 13:30N 47°33' W 122°21'0 0.1
2017-May-24 12:59N 47°33' W 122°21'0 0.0
2017-May-24 12:29N 47°33' W 122°21'0 0.0
2017-May-24 11:59N 47°33' W 122°21'0 0.0
2017-May-24 11:30N 47°33' W 122°21'0 0.1
2017-May-24 10:59N 47°33' W 122°21'0 0.1
2017-May-24 10:30N 47°33' W 122°21'0 0.0
2017-May-24 09:59N 47°33' W 122°21'0 0.0
2017-May-24 09:29N 47°33' W 122°21'0 0.0
2017-May-24 08:58N 47°33' W 122°21'0 0.0
2017-May-24 08:28N 47°33' W 122°21'0 0.0
2017-May-24 07:58N 47°33' W 122°21'0 0.0
2017-May-24 07:28N 47°33' W 122°21'0 0.0
2017-May-24 06:58N 47°33' W 122°21'0 0.0
2017-May-24 06:28N 47°33' W 122°21'0 0.0
2017-May-24 06:01N 47°33' W 122°21'0 0.0
2017-May-24 05:30N 47°33' W 122°21'0 0.0
2017-May-24 05:00N 47°33' W 122°21'0 0.0
2017-May-24 04:30N 47°33' W 122°21'0 0.0
2017-May-24 04:00N 47°33' W 122°21'0 0.0
2017-May-24 03:30N 47°33' W 122°21'0 0.0
2017-May-24 03:00N 47°33' W 122°21'0 0.0
2017-May-24 02:30N 47°33' W 122°21'0 0.0
2017-May-24 02:00N 47°33' W 122°21'0 0.0
2017-May-24 01:27N 47°33' W 122°21'0 0.0
2017-May-24 01:00N 47°33' W 122°21'  
Track history (hours):
 
Tides and Currents Weather Stations Pressure Air Temp Water Temp Dewpoint Dewpoint Depression Visibility Wind Speed Wind Dir Waves Ship Positions

M. Luther

Owner: Salmon Bay Barge Line, Inc., Seattle, WA. More information available from US FCC via Universal Licensing System and Coast Guard Vessel Documentation Center.

Last reported at 2017-Jun-01 18:57 UTC. Time now 2017-Jun-23 03:31 UTC.
Position N 45°34' W 122°43'.
Warning: this ship's position is 21 days out of date.

Length 28 m; draft 4.1 m.

Type: Tug. MMSI: 367070410.

Date/timePositionNaut miles runAvg speedWind from/ knotsBaromVisibWave heightAir tempDewpointWater temp
2017-Jun-01 18:57N 45°34' W 122°43'0 0.0
2017-Jun-01 18:24N 45°34' W 122°43'0 0.1
2017-Jun-01 18:01N 45°34' W 122°43'4 7.0
2017-Jun-01 17:30N 45°36' W 122°47'3 6.6
2017-Jun-01 17:00N 45°39' W 122°44'0 0.9
2017-Jun-01 16:30N 45°39' W 122°45'2 4.0
2017-Jun-01 16:01N 45°41' W 122°46'2 3.9
2017-Jun-01 15:31N 45°43' W 122°46'2 4.0
2017-Jun-01 15:01N 45°45' W 122°46'4 3.9
2017-Jun-01 14:01N 45°48' W 122°47'2 3.7
2017-Jun-01 13:31N 45°50' W 122°47'2 3.7
2017-Jun-01 13:01N 45°52' W 122°47'2 3.6
2017-Jun-01 12:30N 45°54' W 122°48'2 3.7
2017-Jun-01 12:01N 45°55' W 122°48'2 3.8
2017-Jun-01 11:31N 45°57' W 122°49'2 3.7
2017-Jun-01 11:01N 45°59' W 122°50'2 4.1
2017-Jun-01 10:30N 46°01' W 122°51'2 3.6
2017-Jun-01 10:00N 46°02' W 122°53'2 3.6
2017-Jun-01 09:31N 46°04' W 122°53'2 3.6
2017-Jun-01 09:00N 46°05' W 122°55'2 3.4
2017-Jun-01 08:31N 46°06' W 122°57'2 3.8
2017-Jun-01 08:01N 46°07' W 122°59'2 3.6
2017-Jun-01 07:30N 46°08' W 123°01'2 3.7
2017-Jun-01 07:01N 46°09' W 123°04'2 3.9
2017-Jun-01 06:31N 46°10' W 123°06'2 4.2
2017-Jun-01 06:01N 46°11' W 123°09'2 3.9
2017-Jun-01 05:30N 46°11' W 123°11'2 4.1
2017-Jun-01 05:01N 46°10' W 123°14'2 3.9
2017-Jun-01 04:31N 46°09' W 123°16'2 4.6
2017-Jun-01 04:01N 46°09' W 123°20'2 4.7
2017-Jun-01 03:31N 46°09' W 123°23'2 4.9
2017-Jun-01 03:01N 46°11' W 123°26'3 5.1
2017-Jun-01 02:31N 46°13' W 123°25'3 5.4
2017-Jun-01 02:01N 46°16' W 123°27'3 5.2
2017-Jun-01 01:31N 46°16' W 123°31'3 6.0
2017-Jun-01 01:01N 46°15' W 123°35'3 6.1
2017-Jun-01 00:31N 46°15' W 123°40'3 6.5
2017-Jun-01 00:01N 46°14' W 123°44'3 7.0
2017-May-31 23:31N 46°12' W 123°48'3 6.9
2017-May-31 23:01N 46°11' W 123°53'3 6.5
2017-May-31 22:31N 46°13' W 123°57'2 4.5
2017-May-31 22:01N 46°14' W 123°60'3 5.3
2017-May-31 21:31N 46°16' W 124°03'2 4.5
2017-May-31 21:00N 46°15' W 124°06'2 4.6
2017-May-31 20:31N 46°13' W 124°09'2 4.8
2017-May-31 20:01N 46°13' W 124°12'2 4.5
2017-May-31 19:31N 46°13' W 124°15'2 4.5
2017-May-31 19:01N 46°15' W 124°18'2 3.9
2017-May-31 18:31N 46°16' W 124°19'2 4.4
2017-May-31 18:00N 46°19' W 124°19'3 5.3
2017-May-31 17:30N 46°21' W 124°20'2 5.1
2017-May-31 17:01N 46°24' W 124°21'3 5.4
2017-May-31 16:31N 46°26' W 124°21'3 5.2
2017-May-31 16:01N 46°29' W 124°22'3 5.1
2017-May-31 15:31N 46°31' W 124°23'3 5.2
2017-May-31 15:00N 46°34' W 124°24'5 5.5
2017-May-31 14:01N 46°39' W 124°25'3 5.2
2017-May-31 13:30N 46°42' W 124°26'3 5.0
2017-May-31 13:01N 46°44' W 124°27'3 5.0
2017-May-31 12:30N 46°47' W 124°27'3 5.1
2017-May-31 12:00N 46°49' W 124°28'3 5.2
2017-May-31 11:31N 46°52' W 124°29'3 5.3
2017-May-31 11:00N 46°54' W 124°30'3 6.4
2017-May-31 10:30N 46°57' W 124°31'3 6.6
2017-May-31 10:00N 47°01' W 124°32'3 6.4
2017-May-31 09:30N 47°04' W 124°33'510.4
2017-May-31 09:00N 47°09' W 124°35'2 3.0
2017-May-31 08:30N 47°10' W 124°35'66 6.9
2017-May-30 22:51N 48°15' W 124°58'2 6.3
2017-May-30 22:30N 48°17' W 124°56'3 6.0
2017-May-30 21:56N 48°20' W 124°53'3 6.6
2017-May-30 21:29N 48°22' W 124°51'4 7.5
2017-May-30 21:00N 48°25' W 124°48'4 7.6
2017-May-30 20:30N 48°26' W 124°42'4 8.6
2017-May-30 20:00N 48°24' W 124°36'4 8.8
2017-May-30 19:30N 48°22' W 124°30'4 8.4
2017-May-30 19:00N 48°20' W 124°24'4 8.2
2017-May-30 18:30N 48°19' W 124°18'4 8.6
2017-May-30 18:00N 48°17' W 124°13'4 8.3
2017-May-30 17:29N 48°15' W 124°07'4 8.2
2017-May-30 16:58N 48°13' W 124°01'4 7.5
2017-May-30 16:28N 48°12' W 123°56'3 6.9
2017-May-30 15:59N 48°11' W 123°51'4 6.8
2017-May-30 15:23N 48°12' W 123°45'3 7.2
2017-May-30 15:01N 48°12' W 123°41'4 7.0
2017-May-30 14:27N 48°12' W 123°35'6 6.5
2017-May-30 13:29N 48°15' W 123°27'4 5.6
2017-May-30 12:48N 48°17' W 123°22'2 6.1
2017-May-30 12:27N 48°19' W 123°20'3 7.2
2017-May-30 11:59N 48°21' W 123°16'3 6.7
2017-May-30 11:29N 48°23' W 123°12'3 7.0
2017-May-30 11:01N 48°27' W 123°12'3 6.3
2017-May-30 10:30N 48°30' W 123°12'4 7.6
2017-May-30 10:00N 48°33' W 123°13'4 7.7
2017-May-30 09:30N 48°37' W 123°14'4 7.3
2017-May-30 08:56N 48°41' W 123°16'3 6.7
2017-May-30 08:29N 48°43' W 123°12'4 8.3
2017-May-30 07:57N 48°45' W 123°06'6 4.9
2017-May-30 06:38N 48°51' W 123°05'1 6.3
2017-May-30 06:29N 48°52' W 123°06'4 6.4
2017-May-30 05:56N 48°54' W 123°10'3 6.5
2017-May-30 05:26N 48°56' W 123°14'5 6.2
2017-May-30 04:38N 48°60' W 123°19'1 6.4
2017-May-30 04:30N 49°00' W 123°20'3 5.9
2017-May-30 04:00N 49°03' W 123°21'3 5.3
2017-May-30 03:31N 49°06' W 123°19'3 5.9
2017-May-30 03:01N 49°07' W 123°15'3 6.0
2017-May-30 02:31N 49°07' W 123°11'4 7.5
2017-May-30 02:01N 49°07' W 123°05'4 7.6
2017-May-30 01:31N 49°09' W 123°00'0 0.2
2017-May-30 01:01N 49°09' W 123°00'0 0.0
2017-May-30 00:30N 49°09' W 123°00'0 0.0
2017-May-30 00:00N 49°09' W 123°00'0 0.0
2017-May-29 23:30N 49°09' W 123°00'0 0.0
2017-May-29 23:00N 49°09' W 123°00'0 0.0
2017-May-29 22:30N 49°09' W 123°00'0 0.0
2017-May-29 22:00N 49°09' W 123°00'0 0.0
2017-May-29 21:30N 49°09' W 123°00'0 0.0
2017-May-29 21:00N 49°09' W 123°00'0 0.0
2017-May-29 20:30N 49°09' W 123°00'0 0.0
2017-May-29 20:00N 49°09' W 123°00'0 0.0
2017-May-29 19:30N 49°09' W 123°00'0 0.0
2017-May-29 19:00N 49°09' W 123°00'0 0.0
2017-May-29 18:30N 49°09' W 123°00'0 0.1
2017-May-29 18:00N 49°09' W 123°00'0 0.1
2017-May-29 17:30N 49°09' W 123°00'0 0.0
2017-May-29 17:00N 49°09' W 123°00'0 0.0
2017-May-29 16:30N 49°09' W 123°00'0 0.0
2017-May-29 16:00N 49°09' W 123°00'0 0.0
2017-May-29 15:30N 49°09' W 123°00'0 0.0
2017-May-29 15:00N 49°09' W 123°00'0 0.0
2017-May-29 14:30N 49°09' W 123°00'0 0.0
2017-May-29 13:30N 49°09' W 123°00'0 0.0
2017-May-29 13:00N 49°09' W 123°00'0 0.0
2017-May-29 12:30N 49°09' W 123°00'0 0.0
2017-May-29 12:00N 49°09' W 123°00'0 0.0
2017-May-29 11:30N 49°09' W 123°00'0 0.0
2017-May-29 11:00N 49°09' W 123°00'0 0.0
2017-May-29 10:30N 49°09' W 123°00'0 0.0
2017-May-29 10:00N 49°09' W 123°00'0 0.0
2017-May-29 09:30N 49°09' W 123°00'0 0.0
2017-May-29 09:00N 49°09' W 123°00'0 0.0
2017-May-29 08:30N 49°09' W 123°00'0 0.0
2017-May-29 08:00N 49°09' W 123°00'0 0.0
2017-May-29 07:30N 49°09' W 123°00'0 0.0
2017-May-29 07:00N 49°09' W 123°00'0 0.0
2017-May-29 06:30N 49°09' W 123°00'0 0.0
2017-May-29 06:00N 49°09' W 123°00'0 0.0
2017-May-29 05:30N 49°09' W 123°00'0 0.0
2017-May-29 05:00N 49°09' W 123°00'0 0.0
2017-May-29 04:30N 49°09' W 123°00'0 0.0
2017-May-29 04:00N 49°09' W 123°00'0 0.0
2017-May-29 03:30N 49°09' W 123°00'0 0.0
2017-May-29 03:00N 49°09' W 123°00'0 0.0
2017-May-29 02:30N 49°09' W 123°00'0 0.0
2017-May-29 02:00N 49°09' W 123°00'0 0.0
2017-May-29 01:30N 49°09' W 123°00'0 0.0
2017-May-29 01:00N 49°09' W 123°00'0 0.0
2017-May-29 00:29N 49°09' W 123°00'0 0.0
2017-May-28 23:59N 49°09' W 123°00'0 0.0
2017-May-28 23:29N 49°09' W 123°00'0 0.0
2017-May-28 22:59N 49°09' W 123°00'0 0.0
2017-May-28 22:29N 49°09' W 123°00'0 0.0
2017-May-28 21:59N 49°09' W 123°00'0 0.0
2017-May-28 21:29N 49°09' W 123°00'0 0.0
2017-May-28 20:59N 49°09' W 123°00'0 0.0
2017-May-28 20:29N 49°09' W 123°00'0 0.0
2017-May-28 19:59N 49°09' W 123°00'0 0.0
2017-May-28 19:29N 49°09' W 123°00'0 0.0
2017-May-28 18:59N 49°09' W 123°00'0 0.0
2017-May-28 18:29N 49°09' W 123°00'0 0.0
2017-May-28 17:59N 49°09' W 123°00'0 0.0
2017-May-28 17:29N 49°09' W 123°00'0 0.0
2017-May-28 16:59N 49°09' W 123°00'0 0.0
2017-May-28 16:29N 49°09' W 123°00'0 0.0
2017-May-28 15:59N 49°09' W 123°00'0 0.0
2017-May-28 15:29N 49°09' W 123°00'0 0.0
2017-May-28 14:59N 49°09' W 123°00'0 0.0
2017-May-28 13:59N 49°09' W 123°00'0 0.0
2017-May-28 13:29N 49°09' W 123°00'0 0.0
2017-May-28 12:59N 49°09' W 123°00'0 0.0
2017-May-28 12:29N 49°09' W 123°00'0 0.0
2017-May-28 11:59N 49°09' W 123°00'0 0.0
2017-May-28 11:29N 49°09' W 123°00'0 0.0
2017-May-28 10:59N 49°09' W 123°00'0 0.0
2017-May-28 10:29N 49°09' W 123°00'0 0.0
2017-May-28 09:56N 49°09' W 123°00'0 0.0
2017-May-28 09:29N 49°09' W 123°00'0 0.0
2017-May-28 08:59N 49°09' W 123°00'0 0.0
2017-May-28 08:29N 49°09' W 123°00'0 0.0
2017-May-28 07:59N 49°09' W 123°00'0 0.0
2017-May-28 07:29N 49°09' W 123°00'0 0.0
2017-May-28 06:59N 49°09' W 123°00'0 0.0
2017-May-28 06:29N 49°09' W 123°00'0 0.0
2017-May-28 05:59N 49°09' W 123°00'0 0.0
2017-May-28 05:29N 49°09' W 123°00'0 0.0
2017-May-28 04:59N 49°09' W 123°00'0 0.0
2017-May-28 04:29N 49°09' W 123°00'0 0.0
2017-May-28 03:53N 49°09' W 123°00'0 0.0
2017-May-28 03:29N 49°09' W 123°00'0 0.0
2017-May-28 02:59N 49°09' W 123°00'0 0.0
2017-May-28 02:29N 49°09' W 123°00'0 0.0
2017-May-28 01:59N 49°09' W 123°00'0 0.0
2017-May-28 01:29N 49°09' W 123°00'0 0.0
2017-May-28 00:59N 49°09' W 123°00'0 0.0
2017-May-28 00:29N 49°09' W 123°00'0 0.0
2017-May-27 23:59N 49°09' W 123°00'0 0.0
2017-May-27 23:29N 49°09' W 123°00'0 0.0
2017-May-27 22:59N 49°09' W 123°00'0 0.0
2017-May-27 22:29N 49°09' W 123°00'0 0.0
2017-May-27 21:59N 49°09' W 123°00'0 0.0
2017-May-27 21:29N 49°09' W 123°00'0 0.0
2017-May-27 20:59N 49°09' W 123°00'0 0.0
2017-May-27 20:29N 49°09' W 123°00'0 0.0
2017-May-27 19:59N 49°09' W 123°00'0 0.0
2017-May-27 19:29N 49°09' W 123°00'0 0.0
2017-May-27 18:56N 49°09' W 123°00'0 0.0
2017-May-27 18:29N 49°09' W 123°00'0 0.0
2017-May-27 17:59N 49°09' W 123°00'0 0.0
2017-May-27 17:29N 49°09' W 123°00'0 0.0
2017-May-27 16:59N 49°09' W 123°00'0 0.0
2017-May-27 16:29N 49°09' W 123°00'0 0.0
2017-May-27 15:59N 49°09' W 123°00'0 0.0
2017-May-27 15:29N 49°09' W 123°00'0 0.0
2017-May-27 14:59N 49°09' W 123°00'0 0.0
2017-May-27 14:29N 49°09' W 123°00'0 0.0
2017-May-27 13:28N 49°09' W 123°00'0 0.0
2017-May-27 12:58N 49°09' W 123°00'0 0.0
2017-May-27 12:28N 49°09' W 123°00'0 0.0
2017-May-27 11:58N 49°09' W 123°00'0 0.0
2017-May-27 11:28N 49°09' W 123°00'0 0.0
2017-May-27 10:58N 49°09' W 123°00'0 0.0
2017-May-27 10:25N 49°09' W 123°00'0 0.0
2017-May-27 09:58N 49°09' W 123°00'0 0.0
2017-May-27 09:28N 49°09' W 123°00'0 0.0
2017-May-27 08:58N 49°09' W 123°00'0 0.0
2017-May-27 08:28N 49°09' W 123°00'0 0.0
2017-May-27 07:58N 49°09' W 123°00'0 0.0
2017-May-27 07:28N 49°09' W 123°00'0 0.0
2017-May-27 06:58N 49°09' W 123°00'0 0.0
2017-May-27 06:28N 49°09' W 123°00'0 0.0
2017-May-27 05:58N 49°09' W 123°00'0 0.0
2017-May-27 05:28N 49°09' W 123°00'0 0.0
2017-May-27 04:58N 49°09' W 123°00'0 0.0
2017-May-27 04:28N 49°09' W 123°00'0 0.0
2017-May-27 03:58N 49°09' W 123°00'0 0.0
2017-May-27 03:28N 49°09' W 123°00'0 0.0
2017-May-27 02:58N 49°09' W 123°00'0 0.0
2017-May-27 02:28N 49°09' W 123°00'0 0.0
2017-May-27 01:58N 49°09' W 123°00'0 0.1
2017-May-27 01:28N 49°09' W 123°00'0 0.1
2017-May-27 00:58N 49°09' W 123°00'0 0.0
2017-May-27 00:28N 49°09' W 123°00'0 0.0
2017-May-26 23:58N 49°09' W 123°00'0 0.0
2017-May-26 23:28N 49°09' W 123°00'0 0.0
2017-May-26 22:58N 49°09' W 123°00'0 0.0
2017-May-26 22:28N 49°09' W 123°00'0 0.0
2017-May-26 21:58N 49°09' W 123°00'0 0.0
2017-May-26 21:22N 49°09' W 123°00'0 0.0
2017-May-26 20:58N 49°09' W 123°00'0 0.0
2017-May-26 20:28N 49°09' W 123°00'0 0.0
2017-May-26 19:58N 49°09' W 123°00'0 0.0
2017-May-26 19:28N 49°09' W 123°00'0 0.0
2017-May-26 18:58N 49°09' W 123°00'0 0.0
2017-May-26 18:28N 49°09' W 123°00'0 0.0
2017-May-26 18:00N 49°09' W 123°00'0 0.0
2017-May-26 17:28N 49°09' W 123°00'0 0.0
2017-May-26 16:58N 49°09' W 123°00'0 0.0
2017-May-26 16:28N 49°09' W 123°00'0 0.0
2017-May-26 15:58N 49°09' W 123°00'0 0.0
2017-May-26 15:28N 49°09' W 123°00'0 0.0
2017-May-26 15:01N 49°09' W 123°00'0 0.0
2017-May-26 14:00N 49°09' W 123°00'0 0.0
2017-May-26 13:30N 49°09' W 123°00'0 0.0
2017-May-26 12:57N 49°09' W 123°00'0 0.0
2017-May-26 12:30N 49°09' W 123°00'0 0.0
2017-May-26 12:00N 49°09' W 123°00'0 0.0
2017-May-26 11:30N 49°09' W 123°00'0 0.0
2017-May-26 11:00N 49°09' W 123°00'0 0.0
2017-May-26 10:30N 49°09' W 123°00'0 0.0
2017-May-26 10:00N 49°09' W 123°00'0 0.0
2017-May-26 09:30N 49°09' W 123°00'0 0.0
2017-May-26 09:00N 49°09' W 123°00'0 0.0
2017-May-26 08:30N 49°09' W 123°00'0 0.0
2017-May-26 08:00N 49°09' W 123°00'0 0.0
2017-May-26 07:30N 49°09' W 123°00'0 0.0
2017-May-26 07:00N 49°09' W 123°00'0 0.0
2017-May-26 06:30N 49°09' W 123°00'0 0.0
2017-May-26 06:00N 49°09' W 123°00'0 0.0
2017-May-26 05:30N 49°09' W 123°00'0 0.0
2017-May-26 05:00N 49°09' W 123°00'0 0.0
2017-May-26 04:30N 49°09' W 123°00'0 0.0
2017-May-26 04:00N 49°09' W 123°00'0 0.0
2017-May-26 03:30N 49°09' W 123°00'0 0.0
2017-May-26 03:00N 49°09' W 123°00'0 0.0
2017-May-26 02:30N 49°09' W 123°00'0 0.0
2017-May-26 02:00N 49°09' W 123°00'0 0.0
2017-May-26 01:30N 49°09' W 123°00'0 0.0
2017-May-26 01:00N 49°09' W 123°00'0 0.0
2017-May-26 00:30N 49°09' W 123°00'0 0.0
2017-May-26 00:00N 49°09' W 123°00'0 0.0
2017-May-25 23:30N 49°09' W 123°00'0 0.0
2017-May-25 23:00N 49°09' W 123°00'0 0.0
2017-May-25 22:30N 49°09' W 123°00'0 0.1
2017-May-25 22:00N 49°09' W 123°00'0 0.2
2017-May-25 21:30N 49°09' W 123°01'2 4.6
2017-May-25 21:00N 49°08' W 123°04'2 5.0
2017-May-25 20:30N 49°07' W 123°07'2 4.2
2017-May-25 19:59N 49°07' W 123°10'2 3.8
2017-May-25 19:28N 49°08' W 123°13'2 4.0
2017-May-25 19:00N 49°07' W 123°16'2 3.6
2017-May-25 18:30N 49°06' W 123°18'2 3.1
2017-May-25 18:00N 49°05' W 123°20'3 5.4
2017-May-25 17:25N 49°03' W 123°17'2 4.2
2017-May-25 17:00N 49°01' W 123°15'3 5.9
2017-May-25 16:30N 48°60' W 123°12'3 6.2
2017-May-25 16:00N 48°57' W 123°08'4 6.3
2017-May-25 15:24N 48°55' W 123°04'8 5.6
2017-May-25 13:59N 48°48' W 122°59'2 4.5
2017-May-25 13:29N 48°46' W 123°02'2 3.7
2017-May-25 13:00N 48°45' W 123°04'3 5.8
2017-May-25 12:31N 48°44' W 123°08'4 7.0
2017-May-25 12:00N 48°42' W 123°13'2 4.5
2017-May-25 11:31N 48°40' W 123°15'3 6.0
2017-May-25 11:01N 48°37' W 123°14'3 6.3
2017-May-25 10:30N 48°34' W 123°12'3 6.4
2017-May-25 10:00N 48°31' W 123°11'4 6.9
2017-May-25 09:30N 48°28' W 123°10'4 7.8
2017-May-25 08:58N 48°24' W 123°10'5 7.2
2017-May-25 08:20N 48°19' W 123°11'2 6.7
2017-May-25 07:59N 48°17' W 123°12'8 5.1
2017-May-25 06:26N 48°09' W 123°15'0 0.7
2017-May-25 05:50N 48°09' W 123°16'1 1.4
2017-May-25 05:28N 48°09' W 123°15'1 2.5
2017-May-25 05:00N 48°09' W 123°17'1 1.4
2017-May-25 04:30N 48°10' W 123°18'0 0.7
2017-May-25 04:00N 48°10' W 123°17'1 1.6
2017-May-25 03:31N 48°10' W 123°16'2 4.4
2017-May-25 03:00N 48°11' W 123°13'510.1
2017-May-25 02:30N 48°12' W 123°06'5 9.4
2017-May-25 02:00N 48°11' W 122°59'510.2
2017-May-25 01:29N 48°10' W 122°51'610.0
2017-May-25 00:52N 48°08' W 122°43'8 9.5
2017-May-25 00:00N 48°01' W 122°36'5 9.9
2017-May-24 23:30N 47°57' W 122°31'4 8.5
2017-May-24 23:00N 47°53' W 122°28'5 9.1
2017-May-24 22:30N 47°49' W 122°26'4 8.5
2017-May-24 22:00N 47°45' W 122°26'4 8.4
2017-May-24 21:30N 47°40' W 122°27'4 8.2
2017-May-24 21:00N 47°37' W 122°24'3 5.7
2017-May-24 20:31N 47°34' W 122°22'0 0.0
2017-May-24 20:00N 47°34' W 122°22'0 0.1
2017-May-24 19:31N 47°35' W 122°22'1 2.5
2017-May-24 18:58N 47°33' W 122°21'0 0.0
2017-May-24 18:30N 47°33' W 122°21'0 0.0
2017-May-24 17:59N 47°33' W 122°21'0 0.0
2017-May-24 17:29N 47°33' W 122°21'0 0.0
2017-May-24 16:59N 47°33' W 122°21'0 0.0
2017-May-24 16:26N 47°33' W 122°21'0 0.0
2017-May-24 15:59N 47°33' W 122°21'0 0.0
2017-May-24 15:28N 47°33' W 122°21'0 0.0
2017-May-24 14:57N 47°33' W 122°21'0 0.0
2017-May-24 14:29N 47°33' W 122°21'0 0.0
2017-May-24 13:30N 47°33' W 122°21'0 0.1
2017-May-24 12:59N 47°33' W 122°21'0 0.0
2017-May-24 12:29N 47°33' W 122°21'0 0.0
2017-May-24 11:59N 47°33' W 122°21'0 0.0
2017-May-24 11:30N 47°33' W 122°21'0 0.1
2017-May-24 10:59N 47°33' W 122°21'0 0.1
2017-May-24 10:30N 47°33' W 122°21'0 0.0
2017-May-24 09:59N 47°33' W 122°21'0 0.0
2017-May-24 09:29N 47°33' W 122°21'0 0.0
2017-May-24 08:58N 47°33' W 122°21'0 0.0
2017-May-24 08:28N 47°33' W 122°21'0 0.0
2017-May-24 07:58N 47°33' W 122°21'0 0.0
2017-May-24 07:28N 47°33' W 122°21'0 0.0
2017-May-24 06:58N 47°33' W 122°21'0 0.0
2017-May-24 06:28N 47°33' W 122°21'0 0.0
2017-May-24 06:01N 47°33' W 122°21'0 0.0
2017-May-24 05:30N 47°33' W 122°21'0 0.0
2017-May-24 05:00N 47°33' W 122°21'0 0.0
2017-May-24 04:30N 47°33' W 122°21'0 0.0
2017-May-24 04:00N 47°33' W 122°21'0 0.0
2017-May-24 03:30N 47°33' W 122°21'0 0.0
2017-May-24 03:00N 47°33' W 122°21'0 0.0
2017-May-24 02:30N 47°33' W 122°21'0 0.0
2017-May-24 02:00N 47°33' W 122°21'0 0.0
2017-May-24 01:27N 47°33' W 122°21'0 0.0
2017-May-24 01:00N 47°33' W 122°21'  

Dump ship's entire track history